sensor_id;sensor_type;location;lat;lon;timestamp;pressure;altitude;pressure_sealevel;temperature;humidity
58223;BME280;44020;50.890;15.796;2024-03-06T00:00:06;97744.03;;;5.31;81.80
58223;BME280;44020;50.890;15.796;2024-03-06T00:02:35;97751.27;;;5.31;81.92
58223;BME280;44020;50.890;15.796;2024-03-06T00:05:03;97749.14;;;5.31;81.94
58223;BME280;44020;50.890;15.796;2024-03-06T00:07:31;97754.64;;;5.31;81.76
58223;BME280;44020;50.890;15.796;2024-03-06T00:09:58;97758.06;;;5.29;81.73
58223;BME280;44020;50.890;15.796;2024-03-06T00:12:26;97759.08;;;5.27;81.81
58223;BME280;44020;50.890;15.796;2024-03-06T00:14:53;97757.49;;;5.23;81.88
58223;BME280;44020;50.890;15.796;2024-03-06T00:17:20;97760.13;;;5.23;82.21
58223;BME280;44020;50.890;15.796;2024-03-06T00:19:47;97761.34;;;5.23;82.20
58223;BME280;44020;50.890;15.796;2024-03-06T00:22:15;97760.09;;;5.24;82.17
58223;BME280;44020;50.890;15.796;2024-03-06T00:24:42;97761.85;;;5.24;82.07
58223;BME280;44020;50.890;15.796;2024-03-06T00:27:09;97766.66;;;5.22;82.27
58223;BME280;44020;50.890;15.796;2024-03-06T00:29:37;97768.11;;;5.21;82.29
58223;BME280;44020;50.890;15.796;2024-03-06T00:32:05;97764.98;;;5.20;82.26
58223;BME280;44020;50.890;15.796;2024-03-06T00:34:33;97763.72;;;5.18;82.14
58223;BME280;44020;50.890;15.796;2024-03-06T00:37:00;97765.71;;;5.16;82.13
58223;BME280;44020;50.890;15.796;2024-03-06T00:39:27;97768.33;;;5.13;81.98
58223;BME280;44020;50.890;15.796;2024-03-06T00:41:54;97769.15;;;5.11;82.16
58223;BME280;44020;50.890;15.796;2024-03-06T00:44:21;97772.81;;;5.08;82.16
58223;BME280;44020;50.890;15.796;2024-03-06T00:46:48;97774.40;;;5.04;82.15
58223;BME280;44020;50.890;15.796;2024-03-06T00:49:16;97778.05;;;5.01;82.19
58223;BME280;44020;50.890;15.796;2024-03-06T00:51:43;97778.83;;;4.99;82.19
58223;BME280;44020;50.890;15.796;2024-03-06T00:54:10;97781.91;;;4.98;82.30
58223;BME280;44020;50.890;15.796;2024-03-06T00:56:38;97781.75;;;4.93;82.04
58223;BME280;44020;50.890;15.796;2024-03-06T00:59:05;97782.23;;;4.90;82.03
58223;BME280;44020;50.890;15.796;2024-03-06T01:01:33;97780.90;;;4.85;81.84
58223;BME280;44020;50.890;15.796;2024-03-06T01:04:01;97780.02;;;4.81;82.11
58223;BME280;44020;50.890;15.796;2024-03-06T01:06:28;97780.80;;;4.79;82.07
58223;BME280;44020;50.890;15.796;2024-03-06T01:08:55;97782.85;;;4.77;81.99
58223;BME280;44020;50.890;15.796;2024-03-06T01:11:24;97783.89;;;4.73;81.86
58223;BME280;44020;50.890;15.796;2024-03-06T01:13:53;97785.50;;;4.69;81.98
58223;BME280;44020;50.890;15.796;2024-03-06T01:16:21;97787.29;;;4.65;81.87
58223;BME280;44020;50.890;15.796;2024-03-06T01:18:48;97787.52;;;4.59;81.98
58223;BME280;44020;50.890;15.796;2024-03-06T01:21:16;97786.44;;;4.56;82.08
58223;BME280;44020;50.890;15.796;2024-03-06T01:23:43;97790.47;;;4.52;81.97
58223;BME280;44020;50.890;15.796;2024-03-06T01:26:10;97791.04;;;4.48;82.12
58223;BME280;44020;50.890;15.796;2024-03-06T01:28:38;97791.54;;;4.45;82.02
58223;BME280;44020;50.890;15.796;2024-03-06T01:31:06;97794.89;;;4.40;81.98
58223;BME280;44020;50.890;15.796;2024-03-06T01:33:33;97796.85;;;4.35;82.06
58223;BME280;44020;50.890;15.796;2024-03-06T01:36:00;97794.92;;;4.31;82.05
58223;BME280;44020;50.890;15.796;2024-03-06T01:38:28;97790.04;;;4.26;82.11
58223;BME280;44020;50.890;15.796;2024-03-06T01:40:55;97791.29;;;4.22;82.16
58223;BME280;44020;50.890;15.796;2024-03-06T01:43:25;97790.81;;;4.16;82.18
58223;BME280;44020;50.890;15.796;2024-03-06T01:45:53;97790.27;;;4.13;82.14
58223;BME280;44020;50.890;15.796;2024-03-06T01:48:28;97791.61;;;4.10;82.42
58223;BME280;44020;50.890;15.796;2024-03-06T01:50:57;97791.51;;;4.09;82.34
58223;BME280;44020;50.890;15.796;2024-03-06T01:53:27;97789.86;;;4.06;82.43
58223;BME280;44020;50.890;15.796;2024-03-06T01:55:56;97789.20;;;4.05;82.51
58223;BME280;44020;50.890;15.796;2024-03-06T01:58:24;97787.73;;;4.02;82.33
58223;BME280;44020;50.890;15.796;2024-03-06T02:00:51;97789.46;;;3.99;82.42
58223;BME280;44020;50.890;15.796;2024-03-06T02:03:19;97789.23;;;3.95;82.43
58223;BME280;44020;50.890;15.796;2024-03-06T02:05:50;97788.14;;;3.93;82.63
58223;BME280;44020;50.890;15.796;2024-03-06T02:08:18;97788.26;;;3.90;82.54
58223;BME280;44020;50.890;15.796;2024-03-06T02:10:45;97782.73;;;3.88;82.53
58223;BME280;44020;50.890;15.796;2024-03-06T02:13:14;97790.89;;;3.86;82.58
58223;BME280;44020;50.890;15.796;2024-03-06T02:15:43;97795.67;;;3.81;82.50
58223;BME280;44020;50.890;15.796;2024-03-06T02:18:11;97797.05;;;3.77;82.63
58223;BME280;44020;50.890;15.796;2024-03-06T02:20:39;97795.09;;;3.74;82.50
58223;BME280;44020;50.890;15.796;2024-03-06T02:23:09;97799.30;;;3.69;82.28
58223;BME280;44020;50.890;15.796;2024-03-06T02:25:36;97801.36;;;3.62;82.22
58223;BME280;44020;50.890;15.796;2024-03-06T02:28:04;97805.07;;;3.58;82.25
58223;BME280;44020;50.890;15.796;2024-03-06T02:30:32;97810.86;;;3.53;82.26
58223;BME280;44020;50.890;15.796;2024-03-06T02:33:04;97811.73;;;3.48;82.20
58223;BME280;44020;50.890;15.796;2024-03-06T02:35:31;97810.52;;;3.44;82.07
58223;BME280;44020;50.890;15.796;2024-03-06T02:38:00;97816.37;;;3.38;82.07
58223;BME280;44020;50.890;15.796;2024-03-06T02:40:28;97817.80;;;3.33;82.00
58223;BME280;44020;50.890;15.796;2024-03-06T02:42:55;97818.84;;;3.24;82.10
58223;BME280;44020;50.890;15.796;2024-03-06T02:45:22;97822.04;;;3.19;82.36
58223;BME280;44020;50.890;15.796;2024-03-06T02:47:50;97824.76;;;3.17;82.62
58223;BME280;44020;50.890;15.796;2024-03-06T02:50:17;97828.74;;;3.13;82.34
58223;BME280;44020;50.890;15.796;2024-03-06T02:52:46;97831.77;;;3.03;82.20
58223;BME280;44020;50.890;15.796;2024-03-06T02:55:13;97831.14;;;2.97;82.70
58223;BME280;44020;50.890;15.796;2024-03-06T02:57:40;97832.11;;;2.94;82.82
58223;BME280;44020;50.890;15.796;2024-03-06T03:00:08;97831.98;;;2.93;82.81
58223;BME280;44020;50.890;15.796;2024-03-06T03:02:39;97831.52;;;2.91;82.93
58223;BME280;44020;50.890;15.796;2024-03-06T03:05:07;97829.77;;;2.87;82.76
58223;BME280;44020;50.890;15.796;2024-03-06T03:07:35;97831.49;;;2.83;82.67
58223;BME280;44020;50.890;15.796;2024-03-06T03:10:03;97838.88;;;2.77;82.37
58223;BME280;44020;50.890;15.796;2024-03-06T03:12:31;97842.45;;;2.70;82.58
58223;BME280;44020;50.890;15.796;2024-03-06T03:14:58;97842.48;;;2.65;82.78
58223;BME280;44020;50.890;15.796;2024-03-06T03:17:26;97842.45;;;2.61;82.88
58223;BME280;44020;50.890;15.796;2024-03-06T03:19:53;97845.27;;;2.61;82.95
58223;BME280;44020;50.890;15.796;2024-03-06T03:22:21;97847.80;;;2.58;82.99
58223;BME280;44020;50.890;15.796;2024-03-06T03:24:48;97851.91;;;2.56;83.05
58223;BME280;44020;50.890;15.796;2024-03-06T03:27:15;97858.14;;;2.54;82.80
58223;BME280;44020;50.890;15.796;2024-03-06T03:29:43;97861.81;;;2.49;83.04
58223;BME280;44020;50.890;15.796;2024-03-06T03:32:10;97864.81;;;2.44;83.19
58223;BME280;44020;50.890;15.796;2024-03-06T03:34:38;97870.44;;;2.43;83.17
58223;BME280;44020;50.890;15.796;2024-03-06T03:37:06;97870.32;;;2.42;83.16
58223;BME280;44020;50.890;15.796;2024-03-06T03:39:33;97871.65;;;2.44;83.65
58223;BME280;44020;50.890;15.796;2024-03-06T03:42:00;97872.53;;;2.48;83.68
58223;BME280;44020;50.890;15.796;2024-03-06T03:44:27;97875.27;;;2.51;83.49
58223;BME280;44020;50.890;15.796;2024-03-06T03:46:54;97873.81;;;2.52;83.73
58223;BME280;44020;50.890;15.796;2024-03-06T03:49:22;97874.15;;;2.53;83.61
58223;BME280;44020;50.890;15.796;2024-03-06T03:51:49;97876.52;;;2.55;84.03
58223;BME280;44020;50.890;15.796;2024-03-06T03:54:16;97877.07;;;2.59;83.93
58223;BME280;44020;50.890;15.796;2024-03-06T03:56:43;97879.70;;;2.64;84.21
58223;BME280;44020;50.890;15.796;2024-03-06T03:59:11;97883.98;;;2.67;84.22
58223;BME280;44020;50.890;15.796;2024-03-06T04:01:38;97886.41;;;2.68;84.29
58223;BME280;44020;50.890;15.796;2024-03-06T04:04:05;97889.71;;;2.68;84.29
58223;BME280;44020;50.890;15.796;2024-03-06T04:06:34;97888.48;;;2.68;84.33
58223;BME280;44020;50.890;15.796;2024-03-06T04:09:02;97888.29;;;2.69;84.46
58223;BME280;44020;50.890;15.796;2024-03-06T04:11:29;97887.91;;;2.70;84.53
58223;BME280;44020;50.890;15.796;2024-03-06T04:13:57;97895.19;;;2.73;84.72
58223;BME280;44020;50.890;15.796;2024-03-06T04:16:24;97894.05;;;2.75;84.63
58223;BME280;44020;50.890;15.796;2024-03-06T04:18:51;97891.95;;;2.75;84.59
58223;BME280;44020;50.890;15.796;2024-03-06T04:21:18;97893.73;;;2.74;84.65
58223;BME280;44020;50.890;15.796;2024-03-06T04:23:45;97897.35;;;2.76;84.84
58223;BME280;44020;50.890;15.796;2024-03-06T04:26:13;97896.83;;;2.76;84.62
58223;BME280;44020;50.890;15.796;2024-03-06T04:28:40;97897.73;;;2.75;85.02
58223;BME280;44020;50.890;15.796;2024-03-06T04:31:07;97904.34;;;2.77;84.96
58223;BME280;44020;50.890;15.796;2024-03-06T04:33:35;97906.36;;;2.79;85.35
58223;BME280;44020;50.890;15.796;2024-03-06T04:36:03;97903.70;;;2.80;85.39
58223;BME280;44020;50.890;15.796;2024-03-06T04:38:33;97904.69;;;2.82;85.43
58223;BME280;44020;50.890;15.796;2024-03-06T04:41:00;97905.19;;;2.83;85.54
58223;BME280;44020;50.890;15.796;2024-03-06T04:43:27;97898.73;;;2.82;85.46
58223;BME280;44020;50.890;15.796;2024-03-06T04:45:55;97901.98;;;2.84;85.60
58223;BME280;44020;50.890;15.796;2024-03-06T04:48:22;97903.29;;;2.86;85.77
58223;BME280;44020;50.890;15.796;2024-03-06T04:50:49;97902.00;;;2.88;85.88
58223;BME280;44020;50.890;15.796;2024-03-06T04:53:16;97904.63;;;2.88;86.11
58223;BME280;44020;50.890;15.796;2024-03-06T04:55:43;97896.98;;;2.91;86.12
58223;BME280;44020;50.890;15.796;2024-03-06T04:58:11;97899.71;;;2.93;86.18
58223;BME280;44020;50.890;15.796;2024-03-06T05:00:38;97902.19;;;2.93;85.93
58223;BME280;44020;50.890;15.796;2024-03-06T05:03:06;97909.88;;;2.88;86.38
58223;BME280;44020;50.890;15.796;2024-03-06T05:05:33;97909.03;;;2.87;86.39
58223;BME280;44020;50.890;15.796;2024-03-06T05:08:00;97913.05;;;2.88;86.62
58223;BME280;44020;50.890;15.796;2024-03-06T05:10:28;97916.58;;;2.87;86.62
58223;BME280;44020;50.890;15.796;2024-03-06T05:12:55;97918.66;;;2.88;86.82
58223;BME280;44020;50.890;15.796;2024-03-06T05:15:22;97919.00;;;2.88;87.01
58223;BME280;44020;50.890;15.796;2024-03-06T05:17:50;97918.93;;;2.91;87.09
58223;BME280;44020;50.890;15.796;2024-03-06T05:20:17;97920.99;;;2.91;87.11
58223;BME280;44020;50.890;15.796;2024-03-06T05:22:44;97923.10;;;2.92;87.14
58223;BME280;44020;50.890;15.796;2024-03-06T05:25:12;97924.11;;;2.93;87.28
58223;BME280;44020;50.890;15.796;2024-03-06T05:27:39;97925.27;;;2.95;87.54
58223;BME280;44020;50.890;15.796;2024-03-06T05:30:07;97925.31;;;2.94;87.27
58223;BME280;44020;50.890;15.796;2024-03-06T05:32:35;97923.69;;;2.95;87.46
58223;BME280;44020;50.890;15.796;2024-03-06T05:35:02;97918.90;;;2.96;87.88
58223;BME280;44020;50.890;15.796;2024-03-06T05:37:30;97921.33;;;2.97;87.60
58223;BME280;44020;50.890;15.796;2024-03-06T05:39:58;97923.39;;;2.98;87.77
58223;BME280;44020;50.890;15.796;2024-03-06T05:42:25;97927.06;;;2.99;87.92
58223;BME280;44020;50.890;15.796;2024-03-06T05:44:52;97928.77;;;3.00;87.91
58223;BME280;44020;50.890;15.796;2024-03-06T05:47:21;97938.38;;;3.01;88.11
58223;BME280;44020;50.890;15.796;2024-03-06T05:49:48;97938.39;;;3.01;88.14
58223;BME280;44020;50.890;15.796;2024-03-06T05:52:16;97940.25;;;3.03;88.23
58223;BME280;44020;50.890;15.796;2024-03-06T05:54:43;97944.10;;;3.03;88.31
58223;BME280;44020;50.890;15.796;2024-03-06T05:57:10;97946.90;;;3.03;88.38
58223;BME280;44020;50.890;15.796;2024-03-06T05:59:37;97949.34;;;3.04;88.32
58223;BME280;44020;50.890;15.796;2024-03-06T06:02:06;97949.63;;;3.06;88.72
58223;BME280;44020;50.890;15.796;2024-03-06T06:04:33;97957.05;;;3.09;88.87
58223;BME280;44020;50.890;15.796;2024-03-06T06:07:00;97960.51;;;3.10;88.67
58223;BME280;44020;50.890;15.796;2024-03-06T06:09:28;97962.44;;;3.10;89.02
58223;BME280;44020;50.890;15.796;2024-03-06T06:11:55;97966.09;;;3.11;88.94
58223;BME280;44020;50.890;15.796;2024-03-06T06:14:22;97963.98;;;3.12;88.95
58223;BME280;44020;50.890;15.796;2024-03-06T06:16:49;97959.17;;;3.14;89.11
58223;BME280;44020;50.890;15.796;2024-03-06T06:19:18;97961.52;;;3.17;89.34
58223;BME280;44020;50.890;15.796;2024-03-06T06:21:44;97961.09;;;3.19;89.06
58223;BME280;44020;50.890;15.796;2024-03-06T06:24:11;97963.80;;;3.21;89.48
58223;BME280;44020;50.890;15.796;2024-03-06T06:26:39;97964.44;;;3.23;89.41
58223;BME280;44020;50.890;15.796;2024-03-06T06:29:06;97966.09;;;3.26;89.34
58223;BME280;44020;50.890;15.796;2024-03-06T06:31:33;97961.81;;;3.28;89.39
58223;BME280;44020;50.890;15.796;2024-03-06T06:34:00;97962.45;;;3.30;89.48
58223;BME280;44020;50.890;15.796;2024-03-06T06:36:27;97964.55;;;3.30;89.30
58223;BME280;44020;50.890;15.796;2024-03-06T06:38:54;97964.05;;;3.29;89.63
58223;BME280;44020;50.890;15.796;2024-03-06T06:41:22;97959.54;;;3.27;89.46
58223;BME280;44020;50.890;15.796;2024-03-06T06:43:50;97969.58;;;3.27;89.66
58223;BME280;44020;50.890;15.796;2024-03-06T06:46:19;97965.04;;;3.26;89.86
58223;BME280;44020;50.890;15.796;2024-03-06T06:48:46;97968.01;;;3.26;89.79
58223;BME280;44020;50.890;15.796;2024-03-06T06:51:15;97976.27;;;3.26;89.89
58223;BME280;44020;50.890;15.796;2024-03-06T06:53:42;97971.80;;;3.28;90.12
58223;BME280;44020;50.890;15.796;2024-03-06T06:56:09;97971.27;;;3.33;90.18
58223;BME280;44020;50.890;15.796;2024-03-06T06:58:36;97971.06;;;3.39;90.25
58223;BME280;44020;50.890;15.796;2024-03-06T07:01:03;97970.47;;;3.45;90.32
58223;BME280;44020;50.890;15.796;2024-03-06T07:03:30;97967.63;;;3.51;90.08
58223;BME280;44020;50.890;15.796;2024-03-06T07:05:58;97969.65;;;3.58;90.25
58223;BME280;44020;50.890;15.796;2024-03-06T07:08:25;97972.95;;;3.63;90.29
58223;BME280;44020;50.890;15.796;2024-03-06T07:10:52;97973.85;;;3.67;90.08
58223;BME280;44020;50.890;15.796;2024-03-06T07:13:21;97976.39;;;3.70;90.18
58223;BME280;44020;50.890;15.796;2024-03-06T07:15:48;97976.17;;;3.71;90.14
58223;BME280;44020;50.890;15.796;2024-03-06T07:18:15;97978.89;;;3.73;90.47
58223;BME280;44020;50.890;15.796;2024-03-06T07:20:42;97977.14;;;3.78;90.59
58223;BME280;44020;50.890;15.796;2024-03-06T07:23:10;97975.70;;;3.84;90.56
58223;BME280;44020;50.890;15.796;2024-03-06T07:25:37;97979.44;;;3.87;90.70
58223;BME280;44020;50.890;15.796;2024-03-06T07:28:04;97983.33;;;3.90;90.82
58223;BME280;44020;50.890;15.796;2024-03-06T07:30:32;97985.61;;;3.95;91.14
58223;BME280;44020;50.890;15.796;2024-03-06T07:32:59;97989.48;;;4.00;91.23
58223;BME280;44020;50.890;15.796;2024-03-06T07:35:26;97988.21;;;4.05;91.25
58223;BME280;44020;50.890;15.796;2024-03-06T07:37:53;97987.86;;;4.09;91.15
58223;BME280;44020;50.890;15.796;2024-03-06T07:40:20;97995.42;;;4.14;91.25
58223;BME280;44020;50.890;15.796;2024-03-06T07:42:47;97999.59;;;4.20;91.30
58223;BME280;44020;50.890;15.796;2024-03-06T07:45:15;98000.09;;;4.25;91.33
58223;BME280;44020;50.890;15.796;2024-03-06T07:47:43;98001.40;;;4.27;91.25
58223;BME280;44020;50.890;15.796;2024-03-06T07:50:10;98007.26;;;4.30;91.30
58223;BME280;44020;50.890;15.796;2024-03-06T07:52:37;98006.70;;;4.35;91.24
58223;BME280;44020;50.890;15.796;2024-03-06T07:55:04;98008.62;;;4.40;91.27
58223;BME280;44020;50.890;15.796;2024-03-06T07:57:31;98011.71;;;4.46;91.14
58223;BME280;44020;50.890;15.796;2024-03-06T07:59:56;98016.65;;;4.50;91.14
58223;BME280;44020;50.890;15.796;2024-03-06T08:02:23;98016.31;;;4.54;91.18
58223;BME280;44020;50.890;15.796;2024-03-06T08:04:49;98016.00;;;4.57;90.92
58223;BME280;44020;50.890;15.796;2024-03-06T08:07:15;98017.34;;;4.64;91.11
58223;BME280;44020;50.890;15.796;2024-03-06T08:09:41;98015.74;;;4.72;90.97
58223;BME280;44020;50.890;15.796;2024-03-06T08:12:08;98016.73;;;4.83;91.00
58223;BME280;44020;50.890;15.796;2024-03-06T08:14:34;98019.50;;;4.92;90.59
58223;BME280;44020;50.890;15.796;2024-03-06T08:17:00;98024.17;;;4.98;90.52
58223;BME280;44020;50.890;15.796;2024-03-06T08:19:28;98028.66;;;5.04;90.28
58223;BME280;44020;50.890;15.796;2024-03-06T08:21:54;98027.75;;;5.09;90.04
58223;BME280;44020;50.890;15.796;2024-03-06T08:24:19;98027.30;;;5.15;90.32
58223;BME280;44020;50.890;15.796;2024-03-06T08:26:45;98031.25;;;5.22;89.81
58223;BME280;44020;50.890;15.796;2024-03-06T08:29:11;98031.64;;;5.25;89.71
58223;BME280;44020;50.890;15.796;2024-03-06T08:31:37;98032.89;;;5.33;89.65
58223;BME280;44020;50.890;15.796;2024-03-06T08:34:03;98032.37;;;5.44;89.79
58223;BME280;44020;50.890;15.796;2024-03-06T08:36:29;98034.95;;;5.54;89.35
58223;BME280;44020;50.890;15.796;2024-03-06T08:38:55;98036.11;;;5.59;89.33
58223;BME280;44020;50.890;15.796;2024-03-06T08:41:20;98042.44;;;5.63;89.15
58223;BME280;44020;50.890;15.796;2024-03-06T08:43:47;98043.68;;;5.67;88.83
58223;BME280;44020;50.890;15.796;2024-03-06T08:46:13;98046.42;;;5.73;88.70
58223;BME280;44020;50.890;15.796;2024-03-06T08:48:39;98048.04;;;5.80;88.32
58223;BME280;44020;50.890;15.796;2024-03-06T08:51:05;98048.69;;;5.81;87.52
58223;BME280;44020;50.890;15.796;2024-03-06T08:53:37;98051.36;;;5.81;87.11
58223;BME280;44020;50.890;15.796;2024-03-06T08:56:04;98053.33;;;5.84;86.97
58223;BME280;44020;50.890;15.796;2024-03-06T08:58:31;98052.63;;;5.88;86.78
58223;BME280;44020;50.890;15.796;2024-03-06T09:00:56;98052.42;;;5.89;86.26
58223;BME280;44020;50.890;15.796;2024-03-06T09:03:24;98055.70;;;5.90;86.40
58223;BME280;44020;50.890;15.796;2024-03-06T09:05:50;98055.98;;;5.92;86.26
58223;BME280;44020;50.890;15.796;2024-03-06T09:08:16;98059.79;;;5.93;85.81
58223;BME280;44020;50.890;15.796;2024-03-06T09:10:42;98062.88;;;5.95;85.67
58223;BME280;44020;50.890;15.796;2024-03-06T09:13:08;98061.23;;;6.01;85.13
58223;BME280;44020;50.890;15.796;2024-03-06T09:15:33;98056.19;;;6.07;85.32
58223;BME280;44020;50.890;15.796;2024-03-06T09:17:59;98058.03;;;6.13;85.16
58223;BME280;44020;50.890;15.796;2024-03-06T09:20:25;98060.00;;;6.20;84.83
58223;BME280;44020;50.890;15.796;2024-03-06T09:22:51;98063.84;;;6.28;84.59
58223;BME280;44020;50.890;15.796;2024-03-06T09:25:19;98059.63;;;6.35;84.23
58223;BME280;44020;50.890;15.796;2024-03-06T09:27:45;98061.91;;;6.43;83.88
58223;BME280;44020;50.890;15.796;2024-03-06T09:30:12;98063.91;;;6.49;83.97
58223;BME280;44020;50.890;15.796;2024-03-06T09:32:39;98063.04;;;6.60;83.56
58223;BME280;44020;50.890;15.796;2024-03-06T09:35:06;98064.38;;;6.65;82.97
58223;BME280;44020;50.890;15.796;2024-03-06T09:37:32;98065.88;;;6.74;82.80
58223;BME280;44020;50.890;15.796;2024-03-06T09:39:58;98067.27;;;6.78;81.87
58223;BME280;44020;50.890;15.796;2024-03-06T09:42:24;98064.63;;;6.85;81.72
58223;BME280;44020;50.890;15.796;2024-03-06T09:44:50;98066.34;;;6.94;81.34
58223;BME280;44020;50.890;15.796;2024-03-06T09:47:21;98068.08;;;7.05;81.00
58223;BME280;44020;50.890;15.796;2024-03-06T09:49:51;98072.62;;;7.05;79.13
58223;BME280;44020;50.890;15.796;2024-03-06T09:52:18;98073.89;;;7.05;79.74
58223;BME280;44020;50.890;15.796;2024-03-06T09:54:44;98073.34;;;7.05;79.42
58223;BME280;44020;50.890;15.796;2024-03-06T09:57:09;98079.22;;;7.07;79.32
58223;BME280;44020;50.890;15.796;2024-03-06T09:59:35;98075.10;;;7.09;78.63
58223;BME280;44020;50.890;15.796;2024-03-06T10:02:09;98076.37;;;7.19;78.99
58223;BME280;44020;50.890;15.796;2024-03-06T10:04:35;98070.26;;;7.28;78.46
58223;BME280;44020;50.890;15.796;2024-03-06T10:07:02;98068.91;;;7.33;78.00
58223;BME280;44020;50.890;15.796;2024-03-06T10:09:29;98072.36;;;7.35;77.61
58223;BME280;44020;50.890;15.796;2024-03-06T10:11:58;98074.98;;;7.32;76.95
58223;BME280;44020;50.890;15.796;2024-03-06T10:14:24;98073.61;;;7.28;76.93
58223;BME280;44020;50.890;15.796;2024-03-06T10:19:20;98073.89;;;7.19;76.20
58223;BME280;44020;50.890;15.796;2024-03-06T10:21:49;98072.80;;;7.19;76.33
58223;BME280;44020;50.890;15.796;2024-03-06T10:24:21;98072.20;;;7.31;76.13
58223;BME280;44020;50.890;15.796;2024-03-06T10:26:49;98069.14;;;7.43;76.35
58223;BME280;44020;50.890;15.796;2024-03-06T10:29:19;98074.29;;;7.53;76.03
58223;BME280;44020;50.890;15.796;2024-03-06T10:31:51;98073.95;;;7.56;75.37
58223;BME280;44020;50.890;15.796;2024-03-06T10:34:18;98081.83;;;7.50;74.80
58223;BME280;44020;50.890;15.796;2024-03-06T10:36:48;98078.66;;;7.53;74.69
58223;BME280;44020;50.890;15.796;2024-03-06T10:39:18;98083.77;;;7.68;74.69
58223;BME280;44020;50.890;15.796;2024-03-06T10:41:46;98077.91;;;7.81;74.37
58223;BME280;44020;50.890;15.796;2024-03-06T10:44:17;98077.41;;;7.97;74.15
58223;BME280;44020;50.890;15.796;2024-03-06T10:46:47;98076.33;;;8.10;72.99
58223;BME280;44020;50.890;15.796;2024-03-06T10:49:19;98079.55;;;8.13;72.23
58223;BME280;44020;50.890;15.796;2024-03-06T10:51:46;98078.49;;;8.06;71.66
58223;BME280;44020;50.890;15.796;2024-03-06T10:54:13;98083.83;;;8.00;71.30
58223;BME280;44020;50.890;15.796;2024-03-06T10:56:40;98088.03;;;7.90;69.98
58223;BME280;44020;50.890;15.796;2024-03-06T10:59:11;98089.57;;;7.75;69.75
58223;BME280;44020;50.890;15.796;2024-03-06T11:01:44;98088.58;;;7.63;69.72
58223;BME280;44020;50.890;15.796;2024-03-06T11:04:11;98089.36;;;7.59;69.97
58223;BME280;44020;50.890;15.796;2024-03-06T11:06:38;98084.02;;;7.66;70.08
58223;BME280;44020;50.890;15.796;2024-03-06T11:09:05;98077.70;;;7.82;69.59
58223;BME280;44020;50.890;15.796;2024-03-06T11:11:31;98081.05;;;7.92;69.21
58223;BME280;44020;50.890;15.796;2024-03-06T11:14:03;98078.23;;;7.99;69.01
58223;BME280;44020;50.890;15.796;2024-03-06T11:16:30;98074.79;;;8.06;68.57
58223;BME280;44020;50.890;15.796;2024-03-06T11:19:08;98073.83;;;8.05;67.25
58223;BME280;44020;50.890;15.796;2024-03-06T11:21:35;98076.27;;;7.95;66.86
58223;BME280;44020;50.890;15.796;2024-03-06T11:26:36;98076.37;;;7.77;66.76
58223;BME280;44020;50.890;15.796;2024-03-06T11:29:02;98081.42;;;7.71;66.89
58223;BME280;44020;50.890;15.796;2024-03-06T11:31:28;98078.08;;;7.68;67.09
58223;BME280;44020;50.890;15.796;2024-03-06T11:33:54;98080.52;;;7.62;66.89
58223;BME280;44020;50.890;15.796;2024-03-06T11:36:22;98079.98;;;7.65;66.98
58223;BME280;44020;50.890;15.796;2024-03-06T11:41:27;98067.75;;;8.09;66.98
58223;BME280;44020;50.890;15.796;2024-03-06T11:43:55;98070.51;;;8.26;66.11
58223;BME280;44020;50.890;15.796;2024-03-06T11:46:41;98068.09;;;8.39;65.43
58223;BME280;44020;50.890;15.796;2024-03-06T11:49:40;98068.05;;;8.56;65.41
58223;BME280;44020;50.890;15.796;2024-03-06T11:52:08;98066.34;;;8.70;64.88
58223;BME280;44020;50.890;15.796;2024-03-06T11:54:34;98068.85;;;8.66;64.07
58223;BME280;44020;50.890;15.796;2024-03-06T11:57:02;98068.97;;;8.55;63.53
58223;BME280;44020;50.890;15.796;2024-03-06T11:59:33;98070.82;;;8.41;62.59
58223;BME280;44020;50.890;15.796;2024-03-06T12:02:04;98067.23;;;8.34;63.05
58223;BME280;44020;50.890;15.796;2024-03-06T12:04:31;98070.02;;;8.36;63.32
58223;BME280;44020;50.890;15.796;2024-03-06T12:06:59;98068.66;;;8.45;63.30
58223;BME280;44020;50.890;15.796;2024-03-06T12:09:26;98071.09;;;8.45;63.87
58223;BME280;44020;50.890;15.796;2024-03-06T12:11:52;98070.91;;;8.48;64.01
58223;BME280;44020;50.890;15.796;2024-03-06T12:14:19;98068.86;;;8.57;63.81
58223;BME280;44020;50.890;15.796;2024-03-06T12:17:00;98068.30;;;8.69;64.22
58223;BME280;44020;50.890;15.796;2024-03-06T12:19:32;98067.91;;;8.86;63.96
58223;BME280;44020;50.890;15.796;2024-03-06T12:22:03;98062.70;;;9.00;63.71
58223;BME280;44020;50.890;15.796;2024-03-06T12:24:32;98060.61;;;9.17;63.43
58223;BME280;44020;50.890;15.796;2024-03-06T12:27:06;98057.55;;;9.36;63.30
58223;BME280;44020;50.890;15.796;2024-03-06T12:29:35;98060.52;;;9.48;61.94
58223;BME280;44020;50.890;15.796;2024-03-06T12:32:02;98058.59;;;9.60;61.64
58223;BME280;44020;50.890;15.796;2024-03-06T12:34:28;98058.81;;;9.73;61.10
58223;BME280;44020;50.890;15.796;2024-03-06T12:36:55;98060.36;;;9.80;60.19
58223;BME280;44020;50.890;15.796;2024-03-06T12:39:23;98064.98;;;9.80;60.07
58223;BME280;44020;50.890;15.796;2024-03-06T12:41:50;98063.33;;;10.04;60.03
58223;BME280;44020;50.890;15.796;2024-03-06T12:44:16;98068.09;;;10.04;59.43
58223;BME280;44020;50.890;15.796;2024-03-06T12:46:42;98072.91;;;9.81;59.17
58223;BME280;44020;50.890;15.796;2024-03-06T12:49:08;98072.04;;;9.61;58.96
58223;BME280;44020;50.890;15.796;2024-03-06T12:51:34;98066.38;;;9.54;59.33
58223;BME280;44020;50.890;15.796;2024-03-06T12:54:01;98065.35;;;9.63;59.49
58223;BME280;44020;50.890;15.796;2024-03-06T12:56:29;98067.69;;;9.76;59.41
58223;BME280;44020;50.890;15.796;2024-03-06T12:58:55;98073.77;;;9.90;59.30
58223;BME280;44020;50.890;15.796;2024-03-06T13:01:20;98076.40;;;9.94;58.39
58223;BME280;44020;50.890;15.796;2024-03-06T13:03:46;98081.73;;;9.88;58.08
58223;BME280;44020;50.890;15.796;2024-03-06T13:06:12;98079.88;;;9.89;58.26
58223;BME280;44020;50.890;15.796;2024-03-06T13:08:38;98080.67;;;9.88;58.08